Time;durP1;ratioP1;P1;durP2;ratioP2;P2;SDS_P1;SDS_P2;PMS_P1;PMS_P2;Temp;Humidity;BMP_temperature;BMP_pressure;BME280_temperature;BME280_humidity;BME280_pressure;Samples;Min_cycle;Max_cycle;Signal;HPM_P1;HPM_P2
2023/01/28 00:00:50;;;;;;;3.23;3.13;;;;;;;4.33;82.07;98755.16;5095829;28;20441;-69
2023/01/28 00:03:16;;;;;;;3.67;3.47;;;;;;;4.34;82.29;98753.38;5095900;28;20433;-69
2023/01/28 00:05:43;;;;;;;4.40;4.13;;;;;;;4.36;82.34;98754.81;5095726;28;20445;-69
2023/01/28 00:08:12;;;;;;;3.00;2.80;;;;;;;4.37;82.43;98751.19;5096032;28;20226;-69
2023/01/28 00:10:39;;;;;;;4.27;4.07;;;;;;;4.42;82.24;98756.75;5095452;28;20483;-69
2023/01/28 00:13:07;;;;;;;3.93;3.47;;;;;;;4.38;82.22;98765.16;5095380;28;21012;-69
2023/01/28 00:15:34;;;;;;;3.03;2.90;;;;;;;4.35;82.41;98763.72;5095611;28;20441;-68
2023/01/28 00:18:01;;;;;;;4.07;3.87;;;;;;;4.29;82.31;98753.88;5095592;28;20449;-69
2023/01/28 00:20:27;;;;;;;3.63;3.37;;;;;;;4.33;82.29;98760.44;5095309;28;21010;-69
2023/01/28 00:22:54;;;;;;;4.00;3.80;;;;;;;4.35;82.65;98755.81;5095507;28;20436;-69
2023/01/28 00:25:21;;;;;;;3.63;3.43;;;;;;;4.35;82.31;98763.72;5095411;28;20916;-68
2023/01/28 00:27:49;;;;;;;3.67;3.47;;;;;;;4.35;82.34;98768.97;5095297;28;20222;-69
2023/01/28 00:30:18;;;;;;;5.30;4.23;;;;;;;4.25;82.77;98768.38;5095068;28;20190;-68
2023/01/28 00:32:45;;;;;;;4.17;3.97;;;;;;;4.20;82.56;98773.31;5094963;28;20527;-69
2023/01/28 00:35:11;;;;;;;3.73;3.53;;;;;;;4.16;82.58;98769.41;5095404;28;20465;-69
2023/01/28 00:37:38;;;;;;;3.40;3.30;;;;;;;4.17;82.81;98776.28;5094837;28;20940;-70
2023/01/28 00:40:08;;;;;;;4.43;4.23;;;;;;;4.23;83.03;98783.50;5095477;28;20429;-69
2023/01/28 00:42:36;;;;;;;3.80;3.60;;;;;;;4.18;82.69;98788.47;5094796;28;21009;-69
2023/01/28 00:45:02;;;;;;;4.17;3.77;;;;;;;4.25;83.26;98793.84;5095138;28;20441;-69
2023/01/28 00:47:31;;;;;;;4.23;4.03;;;;;;;4.27;83.28;98803.19;5094961;28;20893;-69
2023/01/28 00:49:57;;;;;;;4.50;4.20;;;;;;;4.32;82.83;98806.13;5095013;28;20437;-69
2023/01/28 00:52:24;;;;;;;3.57;3.37;;;;;;;4.29;82.48;98806.44;5094843;28;20944;-69
2023/01/28 00:54:51;;;;;;;4.53;4.23;;;;;;;4.34;83.10;98814.63;5094616;28;20878;-69
2023/01/28 00:57:18;;;;;;;3.90;3.70;;;;;;;4.28;82.28;98810.06;5093999;28;20437;-69
2023/01/28 00:59:44;;;;;;;4.20;4.00;;;;;;;4.36;82.86;98807.41;5094908;28;20436;-69
2023/01/28 01:02:14;;;;;;;4.17;3.67;;;;;;;4.26;82.68;98812.06;5094679;28;20857;-69
2023/01/28 01:04:53;;;;;;;5.00;4.57;;;;;;;4.31;82.65;98809.75;5094754;28;20505;-69
2023/01/28 01:07:22;;;;;;;3.83;3.63;;;;;;;4.24;82.44;98819.28;5094345;28;20480;-70
2023/01/28 01:09:48;;;;;;;3.97;3.67;;;;;;;4.21;83.18;98809.13;5094339;28;20870;-69
2023/01/28 01:12:16;;;;;;;3.93;3.73;;;;;;;4.23;83.17;98814.22;5094846;28;20445;-69
2023/01/28 01:14:43;;;;;;;3.70;3.50;;;;;;;4.19;82.75;98811.13;5094561;28;20447;-69
2023/01/28 01:17:10;;;;;;;4.07;3.87;;;;;;;4.26;83.19;98812.06;5094710;28;20877;-69
2023/01/28 01:19:37;;;;;;;3.83;3.63;;;;;;;4.23;83.26;98812.41;5094421;28;20445;-69
2023/01/28 01:22:05;;;;;;;3.20;3.10;;;;;;;4.23;83.59;98811.56;5094298;28;20936;-69
2023/01/28 01:24:32;;;;;;;3.67;3.47;;;;;;;4.21;83.10;98808.31;5094136;28;20537;-69
2023/01/28 01:26:59;;;;;;;3.70;3.50;;;;;;;4.20;83.18;98812.75;5093987;28;20437;-69
2023/01/28 01:29:27;;;;;;;4.10;3.90;;;;;;;4.18;82.95;98812.13;5094543;28;20473;-69
2023/01/28 01:31:54;;;;;;;3.97;3.77;;;;;;;4.24;82.76;98816.66;5094058;28;20514;-69
2023/01/28 01:34:21;;;;;;;3.83;3.63;;;;;;;4.24;83.28;98818.47;5093901;28;20487;-69
2023/01/28 01:36:48;;;;;;;4.40;4.20;;;;;;;4.25;83.45;98820.94;5093703;28;20917;-70
2023/01/28 01:39:16;;;;;;;3.63;3.43;;;;;;;4.32;82.92;98818.44;5093897;28;20449;-69
2023/01/28 01:41:43;;;;;;;3.73;3.57;;;;;;;4.21;82.56;98821.47;5093932;28;20437;-69
2023/01/28 01:44:43;;;;;;;3.90;3.70;;;;;;;4.25;82.55;98826.19;5094102;28;20225;-69
2023/01/28 01:47:10;;;;;;;4.23;4.03;;;;;;;4.18;83.17;98833.13;5093710;28;20967;-69
2023/01/28 01:49:36;;;;;;;3.80;3.60;;;;;;;4.13;82.98;98830.19;5093836;28;20432;-69
2023/01/28 01:52:08;;;;;;;3.90;3.60;;;;;;;4.08;82.73;98819.38;5093748;28;20494;-69
2023/01/28 01:54:40;;;;;;;3.80;3.60;;;;;;;4.22;82.22;98829.19;5093643;28;20429;-69
2023/01/28 01:57:10;;;;;;;4.10;3.90;;;;;;;4.24;82.12;98840.31;5093690;28;20433;-69
2023/01/28 01:59:37;;;;;;;4.17;3.90;;;;;;;4.25;82.85;98835.91;5093793;28;20494;-69
2023/01/28 02:02:07;;;;;;;3.80;3.60;;;;;;;4.31;81.73;98843.91;5093466;28;20866;-69
2023/01/28 02:04:39;;;;;;;3.80;3.60;;;;;;;4.37;81.54;98845.84;5093568;28;20502;-69
2023/01/28 02:07:08;;;;;;;3.73;3.53;;;;;;;4.29;81.15;98845.88;5093193;28;20441;-69
2023/01/28 02:09:37;;;;;;;4.17;3.97;;;;;;;4.36;81.25;98849.47;5092227;28;20903;-69
2023/01/28 02:12:08;;;;;;;3.80;3.60;;;;;;;4.32;80.61;98850.78;5093356;28;20447;-69
2023/01/28 02:14:38;;;;;;;4.07;3.77;;;;;;;4.39;80.71;98864.91;5093124;28;20179;-69
2023/01/28 02:17:05;;;;;;;3.70;3.50;;;;;;;4.40;81.04;98850.75;5093261;28;20426;-69
2023/01/28 02:19:37;;;;;;;3.83;3.57;;;;;;;4.43;81.34;98858.31;5093312;28;20437;-69
2023/01/28 02:22:20;;;;;;;3.53;3.33;;;;;;;4.41;81.50;98862.91;5093290;28;20422;-69
2023/01/28 02:25:18;;;;;;;3.90;3.70;;;;;;;4.48;80.80;98861.22;5093036;28;20537;-69
2023/01/28 02:28:02;;;;;;;3.90;3.70;;;;;;;4.51;80.75;98868.78;5072503;28;20534;-69
2023/01/28 02:30:35;;;;;;;3.93;3.73;;;;;;;4.47;80.74;98872.75;5093144;28;20862;-69
2023/01/28 02:33:10;;;;;;;2.97;2.87;;;;;;;4.43;80.49;98868.81;5093044;28;20430;-69
2023/01/28 02:35:42;;;;;;;3.47;3.30;;;;;;;4.40;80.80;98878.84;5092737;28;20802;-69
2023/01/28 02:38:13;;;;;;;4.10;3.70;;;;;;;4.48;80.48;98874.38;5093218;28;20260;-68
2023/01/28 02:43:32;;;;;;;3.80;3.60;;;;;;;4.47;79.74;98875.38;5092335;28;20199;-68
2023/01/28 02:48:46;;;;;;;3.13;3.00;;;;;;;4.46;79.56;98878.16;5092785;28;20303;-69
2023/01/28 02:51:21;;;;;;;3.00;2.90;;;;;;;4.38;79.97;98888.72;5092442;28;20266;-69
2023/01/28 02:53:57;;;;;;;3.30;3.20;;;;;;;4.47;79.59;98888.53;5092735;28;20183;-69
2023/01/28 02:56:29;;;;;;;2.73;2.53;;;;;;;4.41;79.40;98883.94;5092443;28;20638;-68
2023/01/28 02:59:29;;;;;;;3.10;3.00;;;;;;;4.40;79.77;98882.31;5092325;28;20437;-69
2023/01/28 03:01:57;;;;;;;3.20;3.10;;;;;;;4.41;79.56;98889.19;5092187;28;20437;-69
2023/01/28 03:04:30;;;;;;;3.47;3.30;;;;;;;4.39;79.60;98893.81;5092557;28;20429;-69
2023/01/28 03:07:05;;;;;;;2.97;2.77;;;;;;;4.42;79.52;98893.44;5092584;28;20184;-69
2023/01/28 03:09:33;;;;;;;2.77;2.63;;;;;;;4.38;78.98;98894.78;5092108;28;20297;-69
2023/01/28 03:37:25;;;;;;;2.90;2.80;;;;;;;4.30;78.33;98910.59;5092442;28;20404;-69
2023/01/28 03:39:52;;;;;;;3.40;3.20;;;;;;;4.31;78.43;98896.47;5092047;28;20459;-69
2023/01/28 03:42:19;;;;;;;2.67;2.57;;;;;;;4.35;78.65;98905.66;5091866;28;20195;-69
2023/01/28 03:44:48;;;;;;;3.33;3.13;;;;;;;4.35;78.13;98910.91;5091610;28;20836;-69
2023/01/28 03:47:16;;;;;;;2.73;2.63;;;;;;;4.28;78.06;98911.75;5092279;28;20198;-69
2023/01/28 03:49:47;;;;;;;3.50;3.30;;;;;;;4.31;78.20;98909.63;5091972;28;20222;-69
2023/01/28 03:52:15;;;;;;;2.90;2.80;;;;;;;4.29;78.38;98919.47;5091800;28;20456;-69
2023/01/28 03:54:43;;;;;;;2.80;2.60;;;;;;;4.34;78.20;98922.41;5091940;28;20429;-69
2023/01/28 03:57:10;;;;;;;3.10;3.00;;;;;;;4.31;78.14;98920.13;5092028;28;20498;-70
2023/01/28 03:59:36;;;;;;;2.93;2.83;;;;;;;4.31;77.87;98917.50;5091882;28;20440;-69
2023/01/28 04:02:04;;;;;;;3.17;3.07;;;;;;;4.31;78.31;98925.41;5091631;28;20252;-69
2023/01/28 04:04:32;;;;;;;2.73;2.63;;;;;;;4.21;78.46;98913.44;5091873;28;20274;-69
2023/01/28 04:06:59;;;;;;;2.90;2.80;;;;;;;4.30;79.06;98922.94;5091931;28;20323;-69
2023/01/28 04:09:26;;;;;;;2.90;2.70;;;;;;;4.20;78.89;98923.13;5091773;28;20464;-69
2023/01/28 04:11:52;;;;;;;3.13;2.93;;;;;;;4.14;78.80;98918.56;5091881;28;20441;-69
2023/01/28 04:14:19;;;;;;;3.70;3.03;;;;;;;4.14;79.21;98923.81;5091451;28;20256;-68
2023/01/28 04:16:46;;;;;;;2.93;2.70;;;;;;;4.14;78.89;98915.94;5091882;28;20626;-68
2023/01/28 04:19:13;;;;;;;2.83;2.73;;;;;;;4.19;78.76;98920.66;5091751;28;20448;-68
2023/01/28 04:21:41;;;;;;;3.03;2.83;;;;;;;4.16;78.72;98921.00;5092033;28;20434;-68
2023/01/28 04:24:08;;;;;;;3.17;3.00;;;;;;;4.16;79.09;98921.81;5091544;28;20191;-69
2023/01/28 04:26:35;;;;;;;2.40;2.30;;;;;;;4.06;79.04;98926.47;5091473;28;20448;-69
2023/01/28 04:29:03;;;;;;;3.03;2.87;;;;;;;4.06;79.05;98930.91;5091651;28;20545;-69
2023/01/28 04:31:29;;;;;;;2.97;2.80;;;;;;;4.05;79.18;98924.00;5091620;28;20502;-69
2023/01/28 04:33:56;;;;;;;2.60;2.50;;;;;;;4.10;78.63;98926.94;5094500;28;20975;-69
2023/01/28 04:36:23;;;;;;;2.47;2.37;;;;;;;4.13;78.61;98931.88;5095364;28;20432;-69
2023/01/28 04:38:51;;;;;;;2.80;2.70;;;;;;;4.11;79.02;98929.41;5094846;28;20851;-69
2023/01/28 04:41:18;;;;;;;2.80;2.70;;;;;;;4.02;78.97;98929.59;5095182;28;20252;-69
2023/01/28 04:43:45;;;;;;;3.83;3.10;;;;;;;4.00;79.24;98937.63;5095128;28;20441;-69
2023/01/28 04:46:12;;;;;;;2.77;2.67;;;;;;;3.97;79.72;98937.97;5094841;28;21036;-69
2023/01/28 04:48:38;;;;;;;2.80;2.67;;;;;;;3.97;79.26;98939.78;5095042;28;20533;-69
2023/01/28 04:51:06;;;;;;;2.83;2.73;;;;;;;3.98;79.59;98939.63;5094943;28;20441;-69
2023/01/28 04:53:33;;;;;;;2.97;2.80;;;;;;;4.05;78.74;98947.66;5095065;28;20501;-69
2023/01/28 04:56:01;;;;;;;3.30;3.10;;;;;;;3.88;79.42;98949.47;5094862;28;20530;-69
2023/01/28 04:58:28;;;;;;;3.60;3.40;;;;;;;3.90;79.61;98949.31;5094911;28;20448;-69
2023/01/28 05:00:56;;;;;;;3.77;3.47;;;;;;;3.91;79.29;98956.22;5094443;28;20878;-69
2023/01/28 05:03:22;;;;;;;3.37;3.17;;;;;;;3.94;79.67;98961.97;5094526;28;20437;-69
2023/01/28 05:05:49;;;;;;;2.70;2.60;;;;;;;3.90;79.69;98963.28;5094375;28;20437;-69
2023/01/28 05:08:17;;;;;;;3.23;3.13;;;;;;;3.82;80.08;98955.41;5094736;28;20557;-69
2023/01/28 05:10:44;;;;;;;3.00;2.80;;;;;;;3.94;79.29;98969.00;5094268;28;20442;-69
2023/01/28 05:13:25;;;;;;;3.27;3.07;;;;;;;3.92;79.51;98971.81;5094494;28;20869;-70
2023/01/28 05:15:53;;;;;;;4.43;4.03;;;;;;;3.94;80.07;98969.84;5094289;28;20433;-70
2023/01/28 05:18:19;;;;;;;3.37;3.23;;;;;;;4.00;79.27;98979.66;5094557;28;20195;-69
2023/01/28 05:20:47;;;;;;;3.67;3.47;;;;;;;4.01;79.53;98978.69;5094434;28;20475;-69
2023/01/28 05:23:13;;;;;;;6.23;4.20;;;;;;;4.05;79.64;98976.56;5094647;28;20819;-70
2023/01/28 05:25:40;;;;;;;4.30;4.00;;;;;;;4.11;79.14;98981.13;5094566;28;20518;-70
2023/01/28 05:28:07;;;;;;;4.10;3.80;;;;;;;4.18;79.25;98982.09;5094274;28;20429;-69
2023/01/28 05:30:35;;;;;;;3.87;3.57;;;;;;;4.14;78.93;98976.38;5093954;28;20480;-70
2023/01/28 05:33:02;;;;;;;3.70;3.40;;;;;;;4.24;78.82;98987.50;5094250;28;20505;-69
2023/01/28 05:35:29;;;;;;;3.60;3.40;;;;;;;4.22;78.61;98994.75;5093820;28;20195;-69
2023/01/28 05:37:55;;;;;;;3.70;3.50;;;;;;;4.23;78.87;98991.13;5093815;28;20666;-70
2023/01/28 05:40:22;;;;;;;3.57;3.30;;;;;;;4.27;78.47;99000.31;5094027;28;20509;-69
2023/01/28 05:42:49;;;;;;;3.63;3.37;;;;;;;4.25;78.43;98999.66;5093750;28;20944;-69
2023/01/28 05:45:16;;;;;;;9.67;3.80;;;;;;;4.19;79.09;99000.34;5094066;28;20526;-70
2023/01/28 05:47:44;;;;;;;4.23;3.60;;;;;;;4.18;79.11;99009.22;5093594;28;20662;-70
2023/01/28 05:50:13;;;;;;;4.00;3.80;;;;;;;4.13;79.32;98998.38;5093745;28;20554;-71
2023/01/28 05:52:40;;;;;;;3.57;3.37;;;;;;;4.20;79.08;99009.03;5093517;28;20490;-70
2023/01/28 05:55:08;;;;;;;3.10;3.00;;;;;;;4.26;78.78;99013.63;5093711;28;20433;-71
2023/01/28 05:57:34;;;;;;;3.40;3.20;;;;;;;4.34;78.47;99013.59;5093472;28;20666;-71
2023/01/28 06:00:01;;;;;;;3.20;2.90;;;;;;;4.27;78.45;99013.47;5093622;28;20497;-71
2023/01/28 06:02:28;;;;;;;3.10;3.00;;;;;;;4.39;78.12;99022.63;5093714;28;20220;-71
2023/01/28 06:04:56;;;;;;;4.20;4.00;;;;;;;4.41;78.06;99031.16;5093391;28;20445;-71
2023/01/28 06:07:23;;;;;;;4.10;3.90;;;;;;;4.37;78.30;99037.75;5093273;28;20429;-71
2023/01/28 06:09:49;;;;;;;3.97;3.67;;;;;;;4.40;78.68;99042.66;5093082;28;20276;-71
2023/01/28 06:12:16;;;;;;;4.87;4.47;;;;;;;4.46;78.26;99044.63;5093471;28;20199;-72
2023/01/28 06:14:43;;;;;;;4.10;3.87;;;;;;;4.40;78.58;99052.34;5093170;28;20463;-72
2023/01/28 06:17:10;;;;;;;3.90;3.70;;;;;;;4.41;78.64;99056.66;5093289;28;20510;-71
2023/01/28 06:19:36;;;;;;;4.80;4.40;;;;;;;4.45;78.39;99053.50;5093324;28;20449;-73
2023/01/28 06:22:04;;;;;;;4.43;4.23;;;;;;;4.52;78.17;99059.75;5092909;28;20502;-71
2023/01/28 06:24:31;;;;;;;5.53;5.03;;;;;;;4.49;78.16;99060.06;5092795;28;20537;-71
2023/01/28 06:26:58;;;;;;;6.00;4.70;;;;;;;4.45;78.60;99058.75;5092610;28;20206;-72
2023/01/28 06:29:25;;;;;;;4.60;4.20;;;;;;;4.47;78.77;99059.44;5092601;28;20776;-71
2023/01/28 06:31:51;;;;;;;5.37;4.87;;;;;;;4.34;78.70;99072.25;5092702;28;20441;-71
2023/01/28 06:34:18;;;;;;;4.90;4.47;;;;;;;4.46;78.80;99075.38;5093025;28;20437;-72
2023/01/28 06:36:45;;;;;;;19.00;5.60;;;;;;;4.52;78.99;99069.41;5092718;28;20441;-70
2023/01/28 06:39:13;;;;;;;4.93;4.40;;;;;;;4.58;79.20;99071.41;5092877;28;20200;-71
2023/01/28 06:41:40;;;;;;;4.47;4.17;;;;;;;4.63;79.06;99069.06;5092339;28;20871;-70
2023/01/28 06:44:06;;;;;;;4.90;4.50;;;;;;;4.57;79.26;99075.81;5092378;28;20993;-71
2023/01/28 06:46:33;;;;;;;5.90;5.40;;;;;;;4.67;78.38;99089.63;5092593;28;20437;-72
2023/01/28 06:49:00;;;;;;;6.40;5.90;;;;;;;4.79;78.18;99100.59;5092225;28;20481;-71
2023/01/28 06:51:27;;;;;;;7.23;5.00;;;;;;;4.81;78.39;99099.44;5092204;28;20191;-71
2023/01/28 06:53:53;;;;;;;5.77;5.17;;;;;;;4.82;78.60;99095.00;5092284;28;20191;-71
2023/01/28 06:56:22;;;;;;;5.33;4.73;;;;;;;4.95;78.41;99096.09;5092063;28;20240;-73
2023/01/28 06:58:48;;;;;;;5.40;5.07;;;;;;;5.03;78.50;99105.78;5092341;28;20199;-75
2023/01/28 07:01:15;;;;;;;8.27;7.37;;;;;;;5.09;78.03;99100.66;5092398;28;20195;-75
2023/01/28 07:03:42;;;;;;;11.30;7.53;;;;;;;5.21;77.79;99109.81;5086909;28;20196;-76
2023/01/28 07:06:08;;;;;;;8.50;6.27;;;;;;;5.14;77.74;99082.53;5088175;28;20252;-76
2023/01/28 07:08:36;;;;;;;8.53;7.87;;;;;;;5.47;77.73;99112.97;5091971;28;20279;-76
2023/01/28 07:11:03;;;;;;;8.97;7.17;;;;;;;5.51;76.87;99119.53;5091602;28;20698;-76
2023/01/28 07:13:32;;;;;;;6.43;5.93;;;;;;;5.57;76.38;99125.91;5073884;28;20219;-76
2023/01/28 07:15:59;;;;;;;5.93;5.43;;;;;;;5.64;75.92;99122.41;5071482;28;20214;-76
2023/01/28 07:18:25;;;;;;;5.27;4.97;;;;;;;5.60;76.26;99131.66;5072038;28;20211;-76
2023/01/28 07:20:52;;;;;;;5.87;5.37;;;;;;;5.84;76.22;99128.06;5079799;28;20244;-76
2023/01/28 07:23:19;;;;;;;39.47;6.23;;;;;;;5.74;74.42;99138.00;5091366;28;20203;-76
2023/01/28 07:25:46;;;;;;;8.80;5.63;;;;;;;5.56;74.54;99133.00;5091439;28;20651;-76
2023/01/28 07:28:12;;;;;;;6.43;5.97;;;;;;;5.55;74.57;99133.16;5090893;28;20187;-76
2023/01/28 07:30:40;;;;;;;5.10;4.07;;;;;;;5.54;75.08;99142.91;5090641;28;20219;-76
2023/01/28 07:33:07;;;;;;;4.00;3.80;;;;;;;5.62;74.88;99145.50;5091387;28;20194;-76
2023/01/28 07:35:34;;;;;;;4.67;4.40;;;;;;;5.77;75.47;99143.72;5091061;28;20195;-76
2023/01/28 07:38:01;;;;;;;4.10;3.87;;;;;;;5.65;74.95;99149.59;5082389;28;20191;-76
2023/01/28 07:40:29;;;;;;;6.30;4.30;;;;;;;5.71;74.38;99157.63;5071278;28;20196;-74
2023/01/28 07:42:55;;;;;;;6.00;5.60;;;;;;;5.81;74.75;99153.97;5074606;28;20196;-72
2023/01/28 07:45:23;;;;;;;5.27;4.97;;;;;;;5.94;73.62;99156.84;5091830;28;20199;-74
2023/01/28 07:47:56;;;;;;;4.80;4.50;;;;;;;5.86;73.93;99163.00;5091476;28;20223;-74
2023/01/28 07:50:23;;;;;;;4.03;3.83;;;;;;;5.87;73.41;99169.09;5091997;28;20225;-75
2023/01/28 07:52:49;;;;;;;3.87;3.67;;;;;;;5.95;72.99;99163.78;5091631;28;20187;-74
2023/01/28 07:55:16;;;;;;;5.13;4.73;;;;;;;5.85;73.51;99165.81;5091866;28;20195;-75
2023/01/28 07:57:51;;;;;;;4.77;4.20;;;;;;;6.15;73.30;99164.94;5091715;28;20199;-74
2023/01/28 08:00:19;;;;;;;3.67;3.47;;;;;;;6.35;72.85;99158.19;5091193;28;20198;-74
2023/01/28 08:02:47;;;;;;;4.83;4.20;;;;;;;6.56;71.54;99172.34;5090854;28;20195;-75
2023/01/28 08:05:16;;;;;;;4.87;4.47;;;;;;;6.86;71.00;99175.88;5075897;28;20200;-74
2023/01/28 08:07:43;;;;;;;11.87;5.23;;;;;;;7.36;70.55;99176.81;5092920;28;20199;-75
2023/01/28 08:10:11;;;;;;;4.47;3.77;;;;;;;7.68;67.65;99191.44;5094372;28;20222;-74
2023/01/28 08:12:38;;;;;;;5.57;4.57;;;;;;;7.80;68.43;99198.69;5095235;28;20237;-74
2023/01/28 08:15:06;;;;;;;4.27;3.97;;;;;;;8.17;66.53;99203.00;5095434;28;20248;-75
2023/01/28 08:17:33;;;;;;;9.67;4.93;;;;;;;8.49;66.36;99207.81;5095551;28;20198;-75
2023/01/28 08:20:00;;;;;;;6.33;5.83;;;;;;;8.60;64.98;99204.66;5095372;28;20200;-73
2023/01/28 08:22:28;;;;;;;6.10;5.60;;;;;;;8.57;64.87;99207.66;5094992;28;20271;-74
2023/01/28 08:24:55;;;;;;;9.00;6.83;;;;;;;8.73;63.68;99218.81;5094751;28;20219;-75
2023/01/28 08:27:22;;;;;;;4.47;3.00;;;;;;;8.88;61.91;99218.75;5094884;28;20198;-77
2023/01/28 08:29:49;;;;;;;3.73;3.53;;;;;;;9.12;60.86;99226.25;5094603;28;20218;-72
2023/01/28 08:32:15;;;;;;;3.10;3.00;;;;;;;9.08;60.24;99230.31;5095390;28;20245;-73
2023/01/28 08:34:42;;;;;;;2.90;2.80;;;;;;;9.38;60.08;99231.72;5095218;28;20555;-74
2023/01/28 08:37:09;;;;;;;4.50;3.90;;;;;;;9.76;58.45;99240.94;5094910;28;20187;-75
2023/01/28 08:39:37;;;;;;;5.67;3.60;;;;;;;9.82;58.24;99240.13;5094583;28;20244;-74
2023/01/28 08:42:05;;;;;;;3.93;3.63;;;;;;;9.95;57.81;99240.19;5094868;28;20248;-74
2023/01/28 08:44:32;;;;;;;4.53;4.33;;;;;;;9.87;57.76;99238.53;5093879;28;20245;-74
2023/01/28 08:46:58;;;;;;;6.07;5.60;;;;;;;10.12;57.61;99241.50;5094399;28;20248;-73
2023/01/28 08:49:25;;;;;;;3.87;3.67;;;;;;;10.20;55.94;99250.13;5110071;28;20198;-73
2023/01/28 08:51:52;;;;;;;5.10;4.70;;;;;;;9.98;57.13;99237.97;5114515;28;20191;-73
2023/01/28 08:54:19;;;;;;;3.53;3.33;;;;;;;10.17;57.04;99249.72;5114202;28;20186;-73
2023/01/28 08:56:47;;;;;;;3.73;3.53;;;;;;;9.73;57.29;99243.97;5114965;28;20194;-73
2023/01/28 08:59:14;;;;;;;4.10;3.80;;;;;;;10.04;57.08;99249.59;5114752;28;20194;-74
2023/01/28 09:01:41;;;;;;;6.97;3.70;;;;;;;10.27;56.32;99260.75;5114947;28;20190;-73
2023/01/28 09:04:07;;;;;;;4.73;3.53;;;;;;;10.29;55.74;99248.09;5108876;28;20244;-74
2023/01/28 09:06:34;;;;;;;3.23;3.03;;;;;;;10.45;54.83;99258.34;5093543;28;20658;-74
2023/01/28 09:09:01;;;;;;;11.00;4.30;;;;;;;10.35;54.92;99242.00;5094412;28;20256;-76
2023/01/28 09:11:29;;;;;;;4.20;4.00;;;;;;;10.43;54.69;99260.38;5092993;28;20211;-74
2023/01/28 09:13:58;;;;;;;3.37;3.17;;;;;;;10.05;53.70;99257.41;5094425;28;20276;-74
2023/01/28 09:16:25;;;;;;;3.27;3.17;;;;;;;9.38;55.85;99263.53;5094408;28;20199;-75
2023/01/28 09:18:52;;;;;;;3.13;2.83;;;;;;;9.48;56.67;99258.72;5093793;28;20195;-73
2023/01/28 09:21:19;;;;;;;5.03;3.37;;;;;;;9.18;57.24;99238.72;5093841;28;20670;-75
2023/01/28 09:23:46;;;;;;;4.50;3.83;;;;;;;9.22;57.46;99242.63;5094028;28;20195;-75
2023/01/28 09:26:13;;;;;;;3.47;3.20;;;;;;;8.92;58.27;99235.88;5094309;28;20226;-74
2023/01/28 09:28:40;;;;;;;3.70;3.50;;;;;;;8.82;58.61;99240.72;5093340;28;20574;-74
2023/01/28 09:31:09;;;;;;;71.67;7.43;;;;;;;8.77;59.57;99237.78;5093803;28;20642;-75
2023/01/28 09:33:38;;;;;;;5.00;4.67;;;;;;;8.64;60.26;99216.50;5093951;28;20715;-74
2023/01/28 09:36:07;;;;;;;5.03;3.63;;;;;;;8.81;58.94;99239.03;5093825;28;20198;-74
2023/01/28 09:38:35;;;;;;;3.43;3.13;;;;;;;8.76;58.42;99241.44;5093991;28;20327;-73
2023/01/28 09:41:03;;;;;;;3.17;2.97;;;;;;;8.80;58.95;99242.72;5093644;28;20670;-74
2023/01/28 09:43:51;;;;;;;5.30;3.73;;;;;;;8.59;59.06;99243.56;5093473;28;20724;-73
2023/01/28 09:46:19;;;;;;;3.33;3.13;;;;;;;8.58;60.03;99238.44;5094072;28;20210;-75
2023/01/28 09:48:49;;;;;;;3.93;3.53;;;;;;;8.66;60.08;99239.13;5093442;28;20195;-72
2023/01/28 09:51:34;;;;;;;3.73;3.43;;;;;;;8.85;59.26;99241.13;5093821;28;20291;-73
2023/01/28 09:54:04;;;;;;;4.30;4.10;;;;;;;9.06;58.62;99237.63;5093382;28;20188;-74
2023/01/28 09:56:36;;;;;;;4.50;4.20;;;;;;;9.34;59.27;99238.44;5093566;28;20199;-74
2023/01/28 09:59:16;;;;;;;6.43;4.03;;;;;;;9.07;57.52;99249.88;5093920;28;20294;-74
2023/01/28 10:01:51;;;;;;;18.17;7.03;;;;;;;9.04;58.55;99231.69;5093227;28;20191;-74
2023/01/28 10:04:28;;;;;;;23.03;4.57;;;;;;;9.13;58.88;99238.50;5086184;28;20569;-73
2023/01/28 10:07:05;;;;;;;3.00;2.90;;;;;;;9.27;58.46;99243.69;5084830;28;20256;-73
2023/01/28 10:09:41;;;;;;;3.13;3.00;;;;;;;9.37;58.99;99240.69;5092851;28;20178;-74
2023/01/28 10:12:40;;;;;;;3.53;3.33;;;;;;;9.40;58.69;99245.63;5093693;28;20267;-73
2023/01/28 10:15:53;;;;;;;2.73;2.63;;;;;;;8.76;60.20;99242.28;5077573;28;20651;-74
2023/01/28 10:18:31;;;;;;;3.33;3.23;;;;;;;8.42;60.95;99233.41;5066691;28;20198;-72
2023/01/28 10:21:03;;;;;;;3.50;3.30;;;;;;;8.32;60.73;99230.22;5092890;28;20194;-73
2023/01/28 10:23:39;;;;;;;3.97;3.63;;;;;;;8.70;60.62;99229.00;5092481;28;20710;-72
2023/01/28 10:26:23;;;;;;;3.20;3.00;;;;;;;8.56;59.92;99232.50;5092963;28;20590;-73
2023/01/28 10:28:54;;;;;;;6.20;4.27;;;;;;;8.68;60.38;99233.63;5092694;28;20699;-73
2023/01/28 10:31:23;;;;;;;4.10;3.70;;;;;;;8.65;59.96;99228.72;5092231;28;20285;-73
2023/01/28 10:33:51;;;;;;;5.27;3.13;;;;;;;8.54;59.95;99237.19;5092784;28;20205;-72
2023/01/28 10:36:19;;;;;;;6.93;4.70;;;;;;;8.44;61.69;99226.06;5093010;28;20252;-73
2023/01/28 10:38:46;;;;;;;4.70;3.47;;;;;;;8.40;61.12;99227.47;5092775;28;20255;-72
2023/01/28 10:41:19;;;;;;;3.97;3.70;;;;;;;8.41;62.02;99235.22;5092862;28;20286;-73
2023/01/28 10:43:48;;;;;;;4.17;3.87;;;;;;;8.27;62.23;99235.28;5092666;28;20183;-73
2023/01/28 10:46:19;;;;;;;6.73;3.83;;;;;;;8.25;61.70;99226.72;5091478;28;20195;-76
2023/01/28 10:48:53;;;;;;;38.33;5.17;;;;;;;8.10;64.03;99234.66;5105212;28;20258;-72
2023/01/28 10:51:30;;;;;;;4.00;3.80;;;;;;;8.07;64.30;99228.91;5112801;28;20210;-70
2023/01/28 10:53:57;;;;;;;4.77;4.37;;;;;;;8.31;63.30;99220.66;5112977;28;20615;-73
2023/01/28 10:56:26;;;;;;;3.40;3.20;;;;;;;8.16;63.31;99227.78;5112853;28;20201;-72
2023/01/28 10:58:59;;;;;;;12.90;4.13;;;;;;;8.01;64.29;99221.72;5112539;28;20194;-73
2023/01/28 11:01:37;;;;;;;4.10;3.90;;;;;;;7.96;64.55;99224.13;5098951;28;20203;-73
2023/01/28 11:04:04;;;;;;;6.03;4.87;;;;;;;8.10;64.40;99204.72;5071840;28;20271;-68
2023/01/28 11:06:32;;;;;;;7.70;3.73;;;;;;;8.28;63.65;99229.78;5071927;28;20246;-71
2023/01/28 11:08:59;;;;;;;8.43;3.70;;;;;;;8.16;64.34;99222.50;5071583;28;20261;-71
2023/01/28 11:11:28;;;;;;;4.50;4.20;;;;;;;8.36;64.04;99228.84;5077692;28;20271;-69
2023/01/28 11:13:57;;;;;;;6.87;6.30;;;;;;;8.03;65.07;99217.06;5091990;28;20233;-69
2023/01/28 11:16:24;;;;;;;4.67;4.37;;;;;;;7.83;65.19;99222.13;5092046;28;20615;-69
2023/01/28 11:18:53;;;;;;;8.00;7.20;;;;;;;8.06;65.76;99227.28;5091868;28;20664;-70
2023/01/28 11:21:22;;;;;;;7.30;6.70;;;;;;;7.88;65.44;99229.50;5084842;28;20674;-69
2023/01/28 11:23:55;;;;;;;8.40;7.70;;;;;;;7.89;65.11;99221.41;5071923;28;20204;-70
2023/01/28 11:26:25;;;;;;;8.67;7.87;;;;;;;8.05;64.95;99215.06;5072062;28;20208;-69
2023/01/28 11:28:52;;;;;;;10.80;5.50;;;;;;;8.24;64.82;99214.47;5071885;28;20198;-69
2023/01/28 11:31:22;;;;;;;5.27;4.10;;;;;;;8.52;65.22;99213.53;5084388;28;20229;-70
2023/01/28 11:33:51;;;;;;;4.90;4.60;;;;;;;8.79;63.05;99219.91;5091789;28;20202;-73
2023/01/28 11:36:20;;;;;;;4.47;4.20;;;;;;;8.67;62.56;99226.72;5091858;28;20539;-72
2023/01/28 11:38:53;;;;;;;4.80;4.17;;;;;;;8.52;63.25;99229.44;5091650;28;20670;-72
2023/01/28 11:41:27;;;;;;;4.60;4.30;;;;;;;8.38;64.12;99219.69;5092542;28;20671;-71
2023/01/28 11:43:54;;;;;;;10.13;5.10;;;;;;;8.34;63.82;99226.38;5096149;28;20190;-71
2023/01/28 11:46:49;;;;;;;19.90;5.57;;;;;;;8.54;64.34;99221.31;5096080;28;20199;-72
2023/01/28 11:49:24;;;;;;;5.30;4.80;;;;;;;8.48;63.76;99227.34;5096311;28;20203;-72
2023/01/28 11:51:59;;;;;;;9.73;4.53;;;;;;;8.67;63.31;99224.06;5095444;28;20631;-71
2023/01/28 11:54:44;;;;;;;9.83;4.87;;;;;;;8.60;63.36;99225.81;5095705;28;20186;-69
2023/01/28 11:57:23;;;;;;;5.60;5.30;;;;;;;8.76;63.18;99225.56;5095977;28;20187;-73
2023/01/28 12:00:37;;;;;;;63.63;7.20;;;;;;;8.86;62.96;99221.56;5095614;28;20247;-70
2023/01/28 12:03:35;;;;;;;40.77;5.17;;;;;;;8.84;63.65;99236.03;5076459;28;20289;-72
2023/01/28 12:06:22;;;;;;;4.10;3.90;;;;;;;8.87;63.26;99235.66;5095444;28;20316;-77
2023/01/28 12:08:57;;;;;;;5.80;5.00;;;;;;;8.97;62.97;99233.47;5095739;28;20210;-70
2023/01/28 12:14:29;;;;;;;11.87;4.60;;;;;;;8.90;63.86;99241.38;5095142;28;20330;-78
2023/01/28 12:17:11;;;;;;;4.90;4.70;;;;;;;8.87;63.04;99248.88;5095775;28;20183;-69
2023/01/28 12:19:50;;;;;;;7.07;5.27;;;;;;;8.75;63.63;99245.94;5094492;28;20700;-77
2023/01/28 12:22:31;;;;;;;5.43;5.10;;;;;;;8.34;63.38;99247.53;5095298;28;20650;-74
2023/01/28 12:25:15;;;;;;;16.47;5.20;;;;;;;8.18;64.53;99242.50;5089110;28;20235;-74
2023/01/28 12:27:53;;;;;;;8.93;5.20;;;;;;;8.29;65.68;99233.28;5095352;28;20249;-77